createdAt,value
2023-04-08T00:00:25.637Z,101491.81
2023-04-08T00:02:52.128Z,101493.28
2023-04-08T00:05:18.778Z,101498.28
2023-04-08T00:07:45.307Z,101495.41
2023-04-08T00:10:11.740Z,101499.50
2023-04-08T00:12:38.122Z,101498.38
2023-04-08T00:15:04.901Z,101495.63
2023-04-08T00:17:31.403Z,101497.50
2023-04-08T00:19:57.735Z,101501.53
2023-04-08T00:22:24.108Z,101500.00
2023-04-08T00:24:50.514Z,101503.06
2023-04-08T00:27:16.899Z,101498.91
2023-04-08T00:29:43.298Z,101496.16
2023-04-08T00:32:09.670Z,101500.78
2023-04-08T00:34:35.982Z,101497.34
2023-04-08T00:37:02.309Z,101505.44
2023-04-08T00:39:28.658Z,101503.91
2023-04-08T00:41:54.983Z,101507.06
2023-04-08T00:44:21.331Z,101507.84
2023-04-08T00:46:47.877Z,101513.72
2023-04-08T00:49:14.196Z,101511.00
2023-04-08T00:51:40.506Z,101509.81
2023-04-08T00:54:06.836Z,101511.75
2023-04-08T00:56:33.369Z,101509.03
2023-04-08T00:58:59.756Z,101504.69
2023-04-08T01:01:26.153Z,101509.34
2023-04-08T01:03:52.970Z,101509.81
2023-04-08T01:06:19.385Z,101507.16
2023-04-08T01:08:45.702Z,101503.66
2023-04-08T01:11:12.051Z,101509.03
2023-04-08T01:13:38.449Z,101510.13
2023-04-08T01:16:04.861Z,101507.56
2023-04-08T01:18:31.305Z,101510.56
2023-04-08T01:20:57.803Z,101506.38
2023-04-08T01:23:24.351Z,101513.38
2023-04-08T01:25:50.806Z,101517.63
2023-04-08T01:28:17.161Z,101517.97
2023-04-08T01:30:43.510Z,101517.53
2023-04-08T01:33:09.843Z,101508.69
2023-04-08T01:35:36.169Z,101512.63
2023-04-08T01:38:02.574Z,101510.06
2023-04-08T01:40:28.972Z,101511.16
2023-04-08T01:42:55.391Z,101512.50
2023-04-08T01:45:21.722Z,101512.69
2023-04-08T01:47:48.044Z,101508.09
2023-04-08T01:50:14.462Z,101505.69
2023-04-08T01:52:40.776Z,101506.56
2023-04-08T01:55:07.261Z,101511.47
2023-04-08T01:57:33.587Z,101509.53
2023-04-08T02:00:00.003Z,101509.53
2023-04-08T02:02:26.516Z,101513.47
2023-04-08T02:04:53.107Z,101510.75
2023-04-08T02:07:19.406Z,101507.41
2023-04-08T02:09:45.723Z,101512.41
2023-04-08T02:12:12.065Z,101508.00
2023-04-08T02:14:38.366Z,101513.03
2023-04-08T02:17:04.686Z,101508.75
2023-04-08T02:19:31.050Z,101507.25
2023-04-08T02:21:57.427Z,101512.69
2023-04-08T02:24:23.820Z,101513.47
2023-04-08T02:26:50.186Z,101513.09
2023-04-08T02:29:16.677Z,101512.69
2023-04-08T02:31:43.084Z,101511.31
2023-04-08T02:34:09.440Z,101506.19
2023-04-08T02:36:35.810Z,101509.00
2023-04-08T02:39:02.300Z,101509.69
2023-04-08T02:41:28.669Z,101510.13
2023-04-08T02:43:54.977Z,101506.63
2023-04-08T02:46:21.343Z,101507.91
2023-04-08T02:48:47.915Z,101512.09
2023-04-08T02:51:14.475Z,101505.44
2023-04-08T02:53:40.947Z,101504.59
2023-04-08T02:56:07.346Z,101500.75
2023-04-08T02:58:33.684Z,101505.84
2023-04-08T03:01:00.012Z,101509.78
2023-04-08T03:03:26.459Z,101506.28
2023-04-08T03:05:52.802Z,101502.03
2023-04-08T03:08:19.240Z,101503.63
2023-04-08T03:10:45.764Z,101510.47
2023-04-08T03:13:12.147Z,101509.44
2023-04-08T03:15:38.483Z,101508.25
2023-04-08T03:18:04.857Z,101505.94
2023-04-08T03:20:31.242Z,101509.00
2023-04-08T03:22:58.058Z,101509.28
2023-04-08T03:25:24.428Z,101512.84
2023-04-08T03:27:50.746Z,101508.25
2023-04-08T03:30:17.289Z,101504.69
2023-04-08T03:32:43.886Z,101503.22
2023-04-08T03:35:10.293Z,101506.19
2023-04-08T03:37:36.691Z,101502.03
2023-04-08T03:40:03.015Z,101506.19
2023-04-08T03:42:29.495Z,101515.75
2023-04-08T03:44:55.929Z,101513.78
2023-04-08T03:47:22.266Z,101516.94
2023-04-08T03:49:48.634Z,101515.47
2023-04-08T03:52:14.963Z,101523.56
2023-04-08T03:54:41.292Z,101510.63
2023-04-08T03:57:07.683Z,101517.63
2023-04-08T03:59:34.069Z,101518.03
2023-04-08T04:02:00.461Z,101520.06
2023-04-08T04:04:26.913Z,101515.75
2023-04-08T04:06:53.338Z,101517.44
2023-04-08T04:09:19.683Z,101511.47
2023-04-08T04:11:46.167Z,101510.69
2023-04-08T04:14:12.492Z,101518.47
2023-04-08T04:16:38.813Z,101514.59
2023-04-08T04:19:05.306Z,101518.53
2023-04-08T04:21:31.645Z,101515.38
2023-04-08T04:23:57.968Z,101519.66
2023-04-08T04:26:24.343Z,101515.47
2023-04-08T04:28:50.863Z,101523.16
2023-04-08T04:31:17.413Z,101523.16
2023-04-08T04:33:43.811Z,101518.63
2023-04-08T04:36:10.207Z,101525.94
2023-04-08T04:38:36.536Z,101526.28
2023-04-08T04:41:02.877Z,101527.41
2023-04-08T04:43:29.243Z,101537.19
2023-04-08T04:45:55.597Z,101532.94
2023-04-08T04:48:22.041Z,101543.09
2023-04-08T04:50:48.401Z,101550.16
2023-04-08T04:53:14.763Z,101543.16
2023-04-08T04:55:41.092Z,101556.44
2023-04-08T04:58:07.476Z,101559.06
2023-04-08T05:00:33.795Z,101552.09
2023-04-08T05:03:00.237Z,101550.22
2023-04-08T05:05:26.622Z,101554.41
2023-04-08T05:07:52.992Z,101559.16
2023-04-08T05:10:19.387Z,101562.41
2023-04-08T05:12:45.797Z,101560.38
2023-04-08T05:15:12.162Z,101561.53
2023-04-08T05:17:38.565Z,101566.91
2023-04-08T05:20:04.898Z,101563.09
2023-04-08T05:22:31.214Z,101574.06
2023-04-08T05:24:57.575Z,101570.06
2023-04-08T05:27:23.887Z,101568.53
2023-04-08T05:29:50.422Z,101580.97
2023-04-08T05:32:16.980Z,101580.13
2023-04-08T05:34:43.320Z,101580.97
2023-04-08T05:37:09.686Z,101583.00
2023-04-08T05:39:36.004Z,101593.78
2023-04-08T05:42:02.370Z,101593.78
2023-04-08T05:44:28.688Z,101585.59
2023-04-08T05:46:55.096Z,101592.94
2023-04-08T05:49:21.467Z,101591.78
2023-04-08T05:51:47.806Z,101595.81
2023-04-08T05:54:14.276Z,101603.53
2023-04-08T05:56:40.879Z,101606.63
2023-04-08T05:59:07.317Z,101609.75
2023-04-08T06:01:33.754Z,101608.50
2023-04-08T06:04:00.218Z,101608.16
2023-04-08T06:06:26.649Z,101611.72
2023-04-08T06:08:53.115Z,101617.94
2023-04-08T06:11:19.542Z,101615.00
2023-04-08T06:13:45.964Z,101620.53
2023-04-08T06:16:12.392Z,101618.56
2023-04-08T06:18:38.881Z,101609.28
2023-04-08T06:21:05.245Z,101621.22
2023-04-08T06:23:31.561Z,101621.78
2023-04-08T06:25:57.947Z,101623.47
2023-04-08T06:28:24.288Z,101616.31
2023-04-08T06:30:50.830Z,101619.66
2023-04-08T06:33:17.143Z,101621.38
2023-04-08T06:35:43.553Z,101625.91
2023-04-08T06:38:09.908Z,101620.03
2023-04-08T06:40:36.477Z,101638.00
2023-04-08T06:43:02.892Z,101640.78
2023-04-08T06:45:29.487Z,101652.59
2023-04-08T06:47:55.850Z,101649.38
2023-04-08T06:50:22.210Z,101656.72
2023-04-08T06:52:48.577Z,101660.81
2023-04-08T06:55:14.956Z,101663.81
2023-04-08T06:57:41.342Z,101669.56
2023-04-08T07:00:07.703Z,101662.81
2023-04-08T07:02:34.145Z,101670.03
2023-04-08T07:05:00.533Z,101674.78
2023-04-08T07:07:26.916Z,101675.56
2023-04-08T07:09:53.294Z,101674.63
2023-04-08T07:12:19.648Z,101672.91
2023-04-08T07:14:46.178Z,101686.78
2023-04-08T07:17:12.651Z,101684.41
2023-04-08T07:19:39.027Z,101687.47
2023-04-08T07:22:05.411Z,101682.19
2023-04-08T07:24:31.761Z,101683.66
2023-04-08T07:26:58.099Z,101678.50
2023-04-08T07:29:24.459Z,101673.31
2023-04-08T07:31:51.016Z,101685.69
2023-04-08T07:34:17.513Z,101688.34
2023-04-08T07:36:43.846Z,101683.38
2023-04-08T07:39:10.198Z,101688.75
2023-04-08T07:41:36.541Z,101692.91
2023-04-08T07:44:02.893Z,101684.41
2023-04-08T07:46:29.455Z,101688.16
2023-04-08T07:48:55.846Z,101684.13
2023-04-08T07:51:22.313Z,101691.66
2023-04-08T07:53:48.645Z,101696.94
2023-04-08T07:56:14.985Z,101690.22
2023-04-08T07:58:41.602Z,101696.69
2023-04-08T08:01:08.308Z,101694.19
2023-04-08T08:03:34.879Z,101694.06
2023-04-08T08:06:01.363Z,101702.94
2023-04-08T08:08:27.780Z,101702.06
2023-04-08T08:10:54.134Z,101700.94
2023-04-08T08:13:20.455Z,101702.38
2023-04-08T08:15:46.840Z,101702.38
2023-04-08T08:18:13.164Z,101706.84
2023-04-08T08:20:39.486Z,101700.59
2023-04-08T08:23:05.874Z,101706.56
2023-04-08T08:25:32.213Z,101704.44
2023-04-08T08:27:58.597Z,101709.56
2023-04-08T08:30:24.981Z,101707.06
2023-04-08T08:32:51.421Z,101715.94
2023-04-08T08:35:17.792Z,101714.19
2023-04-08T08:37:44.184Z,101719.66
2023-04-08T08:40:10.684Z,101715.59
2023-04-08T08:42:37.216Z,101720.78
2023-04-08T08:45:03.554Z,101715.69
2023-04-08T08:47:29.969Z,101717.28
2023-04-08T08:49:56.341Z,101715.75
2023-04-08T08:52:23.110Z,101708.34
2023-04-08T08:54:49.494Z,101712.25
2023-04-08T08:57:15.831Z,101720.06
2023-04-08T08:59:42.221Z,101707.22
2023-04-08T09:02:08.622Z,101711.06
2023-04-08T09:04:35.367Z,101713.94
2023-04-08T09:07:01.876Z,101718.22
2023-04-08T09:09:28.243Z,101715.78
2023-04-08T09:11:54.599Z,101715.13
2023-04-08T09:14:20.988Z,101719.63
2023-04-08T09:16:47.376Z,101719.22
2023-04-08T09:19:13.809Z,101716.25
2023-04-08T09:21:40.176Z,101718.88
2023-04-08T09:24:06.619Z,101718.44
2023-04-08T09:26:33.011Z,101717.66
2023-04-08T09:28:59.627Z,101720.06
2023-04-08T09:31:27.563Z,101715.66
2023-04-08T09:33:53.976Z,101719.78
2023-04-08T09:36:20.313Z,101718.41
2023-04-08T09:38:46.624Z,101723.13
2023-04-08T09:41:13.024Z,101731.81
2023-04-08T09:43:39.356Z,101717.66
2023-04-08T09:46:05.771Z,101717.44
2023-04-08T09:48:32.251Z,101722.94
2023-04-08T09:50:58.673Z,101725.00
2023-04-08T09:53:25.080Z,101728.41
2023-04-08T09:55:51.416Z,101729.09
2023-04-08T09:58:17.767Z,101733.19
2023-04-08T10:00:44.205Z,101714.63
2023-04-08T10:03:10.976Z,101722.25
2023-04-08T10:05:37.483Z,101723.81
2023-04-08T10:08:03.872Z,101725.66
2023-04-08T10:10:30.200Z,101733.88
2023-04-08T10:12:56.586Z,101730.16
2023-04-08T10:15:22.954Z,101734.66
2023-04-08T10:17:49.312Z,101721.97
2023-04-08T10:20:15.921Z,101729.34
2023-04-08T10:22:42.255Z,101729.72
2023-04-08T10:25:08.629Z,101728.50
2023-04-08T10:27:34.963Z,101727.69
2023-04-08T10:30:01.283Z,101719.72
2023-04-08T10:32:27.633Z,101720.34
2023-04-08T10:34:54.012Z,101719.28
2023-04-08T10:37:20.366Z,101717.09
2023-04-08T10:39:46.722Z,101718.03
2023-04-08T10:42:13.064Z,101709.44
2023-04-08T10:44:39.450Z,101701.53
2023-04-08T10:47:05.879Z,101707.88
2023-04-08T10:49:32.234Z,101695.06
2023-04-08T10:51:58.636Z,101687.38
2023-04-08T10:54:25.000Z,101689.22
2023-04-08T10:56:51.605Z,101688.50
2023-04-08T10:59:17.995Z,101690.03
2023-04-08T11:01:44.425Z,101685.00
2023-04-08T11:04:10.941Z,101680.69
2023-04-08T11:06:37.336Z,101680.16
2023-04-08T11:09:03.705Z,101682.25
2023-04-08T11:11:30.055Z,101672.50
2023-04-08T11:13:56.620Z,101673.34
2023-04-08T11:16:23.373Z,101669.66
2023-04-08T11:18:49.948Z,101669.31
2023-04-08T11:21:16.288Z,101668.66
2023-04-08T11:23:42.608Z,101673.88
2023-04-08T11:26:08.946Z,101667.41
2023-04-08T11:28:35.327Z,101669.28
2023-04-08T11:31:01.899Z,101661.75
2023-04-08T11:33:28.330Z,101661.84
2023-04-08T11:35:54.704Z,101661.50
2023-04-08T11:38:21.112Z,101662.34
2023-04-08T11:40:47.471Z,101659.38
2023-04-08T11:43:13.845Z,101663.56
2023-04-08T11:45:40.212Z,101661.03
2023-04-08T11:48:06.669Z,101660.72
2023-04-08T11:50:33.100Z,101656.31
2023-04-08T11:52:59.540Z,101650.25
2023-04-08T11:55:25.876Z,101657.22
2023-04-08T11:57:52.208Z,101657.91
2023-04-08T12:00:18.583Z,101650.66
2023-04-08T12:02:45.051Z,101651.00
2023-04-08T12:05:11.583Z,101650.00
2023-04-08T12:07:38.066Z,101644.78
2023-04-08T12:10:04.423Z,101651.22
2023-04-08T12:12:30.750Z,101656.13
2023-04-08T12:14:57.108Z,101642.47
2023-04-08T12:17:23.510Z,101651.09
2023-04-08T12:19:49.845Z,101648.34
2023-04-08T12:22:16.172Z,101643.66
2023-04-08T12:24:42.624Z,101643.00
2023-04-08T12:27:08.943Z,101641.03
2023-04-08T12:29:35.316Z,101645.88
2023-04-08T12:32:01.672Z,101643.53
2023-04-08T12:34:27.991Z,101635.91
2023-04-08T12:36:54.477Z,101632.41
2023-04-08T12:39:20.820Z,101634.97
2023-04-08T12:41:47.175Z,101636.34
2023-04-08T12:44:13.706Z,101631.31
2023-04-08T12:46:40.157Z,101633.19
2023-04-08T12:49:06.716Z,101628.09
2023-04-08T12:51:33.256Z,101630.38
2023-04-08T12:53:59.874Z,101626.25
2023-04-08T12:56:26.636Z,101623.88
2023-04-08T12:58:53.046Z,101617.84
2023-04-08T13:01:19.423Z,101616.72
2023-04-08T13:03:47.056Z,101617.84
2023-04-08T13:06:13.542Z,101617.38
2023-04-08T13:08:39.875Z,101616.19
2023-04-08T13:11:06.194Z,101620.13
2023-04-08T13:13:32.573Z,101620.13
2023-04-08T13:15:58.978Z,101610.84
2023-04-08T13:18:25.386Z,101613.25
2023-04-08T13:20:51.933Z,101612.78
2023-04-08T13:23:18.271Z,101605.38
2023-04-08T13:25:44.620Z,101609.19
2023-04-08T13:28:11.010Z,101614.06
2023-04-08T13:30:37.346Z,101610.41
2023-04-08T13:33:03.869Z,101607.69
2023-04-08T13:35:30.351Z,101617.47
2023-04-08T13:37:56.755Z,101610.94
2023-04-08T13:40:23.488Z,101603.59
2023-04-08T13:42:49.860Z,101601.97
2023-04-08T13:45:16.293Z,101604.69
2023-04-08T13:47:42.733Z,101598.63
2023-04-08T13:50:09.117Z,101595.03
2023-04-08T13:52:35.452Z,101588.47
2023-04-08T13:55:01.823Z,101579.34
2023-04-08T13:57:28.195Z,101589.94
2023-04-08T13:59:54.572Z,101574.06
2023-04-08T14:02:21.014Z,101581.28
2023-04-08T14:04:47.520Z,101578.47
2023-04-08T14:07:14.032Z,101573.56
2023-04-08T14:09:40.347Z,101574.22
2023-04-08T14:12:06.678Z,101574.22
2023-04-08T14:14:33.047Z,101571.81
2023-04-08T14:16:59.488Z,101573.78
2023-04-08T14:19:25.864Z,101568.78
2023-04-08T14:21:52.280Z,101571.06
2023-04-08T14:24:18.878Z,101562.63
2023-04-08T14:26:45.265Z,101562.88
2023-04-08T14:29:11.598Z,101560.56
2023-04-08T14:31:38.036Z,101559.72
2023-04-08T14:34:04.428Z,101562.53
2023-04-08T14:36:30.811Z,101559.13
2023-04-08T14:38:57.151Z,101553.16
2023-04-08T14:41:23.468Z,101553.47
2023-04-08T14:43:49.877Z,101554.00
2023-04-08T14:46:16.377Z,101551.50
2023-04-08T14:48:42.718Z,101551.25
2023-04-08T14:51:09.096Z,101547.25
2023-04-08T14:53:35.426Z,101553.56
2023-04-08T14:56:01.743Z,101560.91
2023-04-08T14:58:28.299Z,101542.97
2023-04-08T15:00:54.682Z,101553.06
2023-04-08T15:03:21.197Z,101543.75
2023-04-08T15:05:47.765Z,101546.38
2023-04-08T15:08:14.244Z,101555.97
2023-04-08T15:10:40.568Z,101546.81
2023-04-08T15:13:06.925Z,101547.69
2023-04-08T15:15:33.363Z,101554.25
2023-04-08T15:17:59.888Z,101558.06
2023-04-08T15:20:26.281Z,101556.63
2023-04-08T15:22:52.606Z,101551.16
2023-04-08T15:25:19.360Z,101552.81
2023-04-08T15:27:45.741Z,101545.78
2023-04-08T15:30:12.535Z,101547.78
2023-04-08T15:32:39.225Z,101551.25
2023-04-08T15:35:05.628Z,101547.34
2023-04-08T15:37:31.939Z,101545.88
2023-04-08T15:39:58.475Z,101550.25
2023-04-08T15:42:24.872Z,101551.16
2023-04-08T15:44:51.218Z,101547.78
2023-04-08T15:47:17.544Z,101555.97
2023-04-08T15:49:43.923Z,101541.56
2023-04-08T15:52:10.272Z,101550.84
2023-04-08T15:54:36.680Z,101554.75
2023-04-08T15:57:03.007Z,101556.31
2023-04-08T15:59:29.401Z,101552.28
2023-04-08T16:01:55.855Z,101548.97
2023-04-08T16:04:22.445Z,101545.38
2023-04-08T16:06:48.895Z,101540.16
2023-04-08T16:09:15.393Z,101555.13
2023-04-08T16:11:41.780Z,101550.75
2023-04-08T16:14:08.104Z,101541.78
2023-04-08T16:16:34.563Z,101547.16
2023-04-08T16:19:00.999Z,101545.06
2023-04-08T16:21:27.589Z,101539.25
2023-04-08T16:23:53.976Z,101546.06
2023-04-08T16:26:20.394Z,101539.50
2023-04-08T16:28:46.739Z,101545.06
2023-04-08T16:31:13.103Z,101539.41
2023-04-08T16:33:39.536Z,101545.47
2023-04-08T16:36:05.985Z,101546.91
2023-04-08T16:38:32.518Z,101544.19
2023-04-08T16:40:58.855Z,101535.91
2023-04-08T16:43:25.234Z,101547.16
2023-04-08T16:45:51.612Z,101541.47
2023-04-08T16:48:18.061Z,101551.94
2023-04-08T16:50:44.538Z,101541.00
2023-04-08T16:53:10.923Z,101539.72
2023-04-08T16:55:37.294Z,101543.41
2023-04-08T16:58:03.654Z,101555.03
2023-04-08T17:00:29.985Z,101555.44
2023-04-08T17:02:56.647Z,101541.69
2023-04-08T17:05:23.236Z,101548.44
2023-04-08T17:07:49.805Z,101551.16
2023-04-08T17:10:16.243Z,101547.34
2023-04-08T17:12:42.614Z,101556.22
2023-04-08T17:15:08.969Z,101541.97
2023-04-08T17:17:35.325Z,101548.78
2023-04-08T17:20:01.651Z,101549.00
2023-04-08T17:22:28.058Z,101544.88
2023-04-08T17:24:54.433Z,101554.34
2023-04-08T17:27:20.826Z,101549.75
2023-04-08T17:29:47.217Z,101552.63
2023-04-08T17:32:13.630Z,101552.38
2023-04-08T17:34:39.979Z,101551.34
2023-04-08T17:37:06.282Z,101548.19
2023-04-08T17:39:32.594Z,101552.47
2023-04-08T17:41:58.926Z,101540.78
2023-04-08T17:44:25.345Z,101543.16
2023-04-08T17:46:51.681Z,101545.56
2023-04-08T17:49:18.087Z,101543.69
2023-04-08T17:51:44.415Z,101550.94
2023-04-08T17:54:10.724Z,101549.97
2023-04-08T17:56:37.100Z,101549.19
2023-04-08T17:59:03.443Z,101558.53
2023-04-08T18:01:29.870Z,101558.16
2023-04-08T18:03:56.401Z,101559.25
2023-04-08T18:06:22.907Z,101568.22
2023-04-08T18:08:49.292Z,101560.13
2023-04-08T18:11:15.680Z,101566.91
2023-04-08T18:13:42.044Z,101564.16
2023-04-08T18:16:08.367Z,101561.63
2023-04-08T18:18:34.716Z,101566.72
2023-04-08T18:21:01.248Z,101562.81
2023-04-08T18:23:27.781Z,101567.59
2023-04-08T18:25:54.163Z,101566.50
2023-04-08T18:28:20.554Z,101566.06
2023-04-08T18:30:47.215Z,101563.84
2023-04-08T18:33:13.543Z,101568.00
2023-04-08T18:35:39.962Z,101575.47
2023-04-08T18:38:06.376Z,101567.78
2023-04-08T18:40:32.830Z,101567.44
2023-04-08T18:42:59.342Z,101571.69
2023-04-08T18:45:25.930Z,101582.97
2023-04-08T18:47:52.654Z,101581.00
2023-04-08T18:50:19.090Z,101584.94
2023-04-08T18:52:45.481Z,101590.38
2023-04-08T18:55:11.817Z,101596.09
2023-04-08T18:57:38.133Z,101596.25
2023-04-08T19:00:04.486Z,101612.16
2023-04-08T19:02:31.023Z,101606.09
2023-04-08T19:04:57.476Z,101613.50
2023-04-08T19:07:23.858Z,101612.31
2023-04-08T19:09:50.189Z,101613.41
2023-04-08T19:12:16.529Z,101614.03
2023-04-08T19:14:42.852Z,101618.63
2023-04-08T19:17:09.212Z,101624.09
2023-04-08T19:19:35.591Z,101629.13
2023-04-08T19:22:01.968Z,101631.44
2023-04-08T19:24:28.378Z,101630.25
2023-04-08T19:26:54.692Z,101627.50
2023-04-08T19:29:21.048Z,101632.97
2023-04-08T19:31:47.456Z,101630.31
2023-04-08T19:34:13.776Z,101631.50
2023-04-08T19:36:40.336Z,101635.50
2023-04-08T19:39:06.680Z,101642.50
2023-04-08T19:41:33.290Z,101640.47
2023-04-08T19:43:59.634Z,101647.19
2023-04-08T19:46:26.021Z,101644.47
2023-04-08T19:48:52.441Z,101650.72
2023-04-08T19:51:18.822Z,101648.75
2023-04-08T19:53:45.153Z,101644.47
2023-04-08T19:56:11.496Z,101647.19
2023-04-08T19:58:37.827Z,101649.16
2023-04-08T20:01:04.155Z,101653.75
2023-04-08T20:03:30.765Z,101656.16
2023-04-08T20:05:57.256Z,101659.75
2023-04-08T20:08:23.600Z,101660.78
2023-04-08T20:10:49.948Z,101668.63
2023-04-08T20:13:16.304Z,101660.94
2023-04-08T20:15:42.795Z,101668.28
2023-04-08T20:18:09.123Z,101663.66
2023-04-08T20:20:35.485Z,101657.09
2023-04-08T20:23:01.886Z,101667.94
2023-04-08T20:25:28.274Z,101660.09
2023-04-08T20:27:54.601Z,101660.16
2023-04-08T20:30:21.107Z,101658.66
2023-04-08T20:32:47.627Z,101660.69
2023-04-08T20:35:13.960Z,101658.72
2023-04-08T20:37:40.319Z,101662.97
2023-04-08T20:40:06.671Z,101664.19
2023-04-08T20:42:33.078Z,101659.47
2023-04-08T20:44:59.433Z,101654.00
2023-04-08T20:47:25.927Z,101649.00
2023-04-08T20:49:53.200Z,101650.63
2023-04-08T20:52:19.652Z,101641.66
2023-04-08T20:54:46.362Z,101649.41
2023-04-08T20:57:12.731Z,101645.16
2023-04-08T20:59:39.296Z,101650.09
2023-04-08T21:02:05.716Z,101647.03
2023-04-08T21:04:32.096Z,101652.50
2023-04-08T21:06:58.514Z,101652.50
2023-04-08T21:09:24.860Z,101654.09
2023-04-08T21:11:51.289Z,101648.22
2023-04-08T21:14:17.711Z,101650.19
2023-04-08T21:16:44.160Z,101652.22
2023-04-08T21:19:10.649Z,101646.69
2023-04-08T21:21:36.969Z,101648.56
2023-04-08T21:24:03.338Z,101647.13
2023-04-08T21:26:29.679Z,101647.53
2023-04-08T21:28:56.004Z,101642.84
2023-04-08T21:31:22.618Z,101633.47
2023-04-08T21:33:48.954Z,101643.19
2023-04-08T21:36:15.409Z,101636.22
2023-04-08T21:38:41.875Z,101640.91
2023-04-08T21:41:08.294Z,101630.75
2023-04-08T21:43:34.633Z,101633.88
2023-04-08T21:46:01.005Z,101629.19
2023-04-08T21:48:27.475Z,101634.72
2023-04-08T21:50:53.818Z,101635.91
2023-04-08T21:53:20.142Z,101634.72
2023-04-08T21:55:46.483Z,101634.72
2023-04-08T21:58:12.844Z,101631.97
2023-04-08T22:00:39.184Z,101640.16
2023-04-08T22:03:05.563Z,101637.81
2023-04-08T22:05:32.005Z,101631.59
2023-04-08T22:07:58.400Z,101629.19
2023-04-08T22:10:24.792Z,101634.03
2023-04-08T22:12:51.171Z,101628.09
2023-04-08T22:15:17.503Z,101637.06
2023-04-08T22:17:43.935Z,101630.97
2023-04-08T22:20:10.332Z,101634.47
2023-04-08T22:22:36.649Z,101632.84
2023-04-08T22:25:03.061Z,101631.38
2023-04-08T22:27:29.446Z,101629.41
2023-04-08T22:29:56.937Z,101628.16
2023-04-08T22:32:23.405Z,101637.19
2023-04-08T22:34:49.974Z,101622.25
2023-04-08T22:37:16.335Z,101624.75
2023-04-08T22:39:42.726Z,101625.50
2023-04-08T22:42:09.074Z,101623.09
2023-04-08T22:44:35.392Z,101621.47
2023-04-08T22:47:01.786Z,101622.00
2023-04-08T22:49:28.168Z,101620.75
2023-04-08T22:51:54.522Z,101625.84
2023-04-08T22:54:20.868Z,101630.19
2023-04-08T22:56:47.180Z,101623.63
2023-04-08T22:59:13.555Z,101618.09
2023-04-08T23:01:40.010Z,101622.88
2023-04-08T23:04:06.558Z,101619.28
2023-04-08T23:06:32.918Z,101624.22
2023-04-08T23:08:59.234Z,101628.25
2023-04-08T23:11:25.596Z,101618.50
2023-04-08T23:13:51.951Z,101615.78
2023-04-08T23:16:18.323Z,101619.59
2023-04-08T23:18:44.691Z,101616.88
2023-04-08T23:21:11.013Z,101610.72
2023-04-08T23:23:37.389Z,101606.81
2023-04-08T23:26:03.763Z,101611.41
2023-04-08T23:28:30.083Z,101603.31
2023-04-08T23:30:56.719Z,101608.44
2023-04-08T23:33:23.039Z,101605.81
2023-04-08T23:35:49.576Z,101603.41
2023-04-08T23:38:15.963Z,101599.16
2023-04-08T23:40:42.313Z,101600.25
2023-04-08T23:43:08.765Z,101607.75
2023-04-08T23:45:35.087Z,101600.66
2023-04-08T23:48:01.413Z,101599.91
2023-04-08T23:50:27.912Z,101605.72
2023-04-08T23:52:54.270Z,101602.28
2023-04-08T23:55:20.588Z,101597.53
2023-04-08T23:57:46.976Z,101597.63
